Time;durP1;ratioP1;P1;durP2;ratioP2;P2;SDS_P1;SDS_P2;PMS_P1;PMS_P2;Temp;Humidity;BMP_temperature;BMP_pressure;BME280_temperature;BME280_humidity;BME280_pressure;Samples;Min_cycle;Max_cycle;Signal;HPM_P1;HPM_P2
2021/08/11 00:02:05;;;;;;;4.75;2.63;;;;;;;29.21;44.37;100742.94;5114154;28;20055;-69
2021/08/11 00:04:33;;;;;;;4.22;2.60;;;;;;;29.19;44.42;100739.47;5113013;28;20135;-68
2021/08/11 00:07:00;;;;;;;5.47;2.60;;;;;;;29.17;44.46;100741.38;5114257;27;20047;-68
2021/08/11 00:09:28;;;;;;;5.93;2.80;;;;;;;29.16;44.59;100738.75;5113774;28;20411;-68
2021/08/11 00:11:57;;;;;;;7.90;2.83;;;;;;;29.16;44.64;100746.91;5113853;28;20526;-67
2021/08/11 00:14:26;;;;;;;7.47;3.05;;;;;;;29.11;44.88;100751.78;5114247;27;20043;-68
2021/08/11 00:16:54;;;;;;;6.43;2.58;;;;;;;29.10;44.76;100756.31;5113929;27;20035;-68
2021/08/11 00:19:21;;;;;;;5.97;2.50;;;;;;;29.10;44.68;100753.59;5113675;27;20039;-68
2021/08/11 00:21:49;;;;;;;7.60;2.42;;;;;;;29.04;44.78;100756.72;5113882;27;20036;-68
2021/08/11 00:24:16;;;;;;;7.55;2.67;;;;;;;29.05;44.69;100753.03;5113617;28;20495;-68
2021/08/11 00:26:43;;;;;;;8.52;2.78;;;;;;;29.00;44.75;100747.00;5113525;27;20040;-67
2021/08/11 00:29:11;;;;;;;6.20;2.85;;;;;;;29.02;44.64;100746.88;5113339;27;20493;-69
2021/08/11 00:32:00;;;;;;;7.38;2.78;;;;;;;29.03;44.74;100752.22;5109708;28;20066;-67
2021/08/11 00:34:28;;;;;;;6.00;3.28;;;;;;;28.96;44.82;100744.53;5113060;28;20521;-67
2021/08/11 00:36:56;;;;;;;5.95;2.88;;;;;;;28.97;44.98;100743.56;5113690;28;20032;-68
2021/08/11 00:39:24;;;;;;;6.13;2.88;;;;;;;28.97;44.98;100749.88;5113683;27;20073;-68
2021/08/11 00:41:51;;;;;;;6.30;2.92;;;;;;;28.94;45.33;100750.09;5113326;27;20042;-67
2021/08/11 00:44:18;;;;;;;6.35;2.53;;;;;;;28.92;45.46;100752.03;5113990;27;20040;-68
2021/08/11 00:46:46;;;;;;;5.47;2.65;;;;;;;28.92;45.42;100754.75;5113598;28;20042;-69
2021/08/11 00:49:17;;;;;;;5.93;3.08;;;;;;;28.91;45.57;100748.44;5113313;27;20061;-68
2021/08/11 00:51:45;;;;;;;8.00;3.05;;;;;;;28.89;45.30;100750.34;5113727;27;20049;-68
2021/08/11 00:54:14;;;;;;;6.15;3.03;;;;;;;28.85;45.18;100745.19;5113268;28;20058;-67
2021/08/11 00:56:47;;;;;;;6.20;2.85;;;;;;;28.83;45.32;100756.16;5113389;28;20039;-68
2021/08/11 00:59:17;;;;;;;6.28;3.33;;;;;;;28.85;45.08;100753.34;5113320;28;20089;-68
2021/08/11 01:01:47;;;;;;;12.18;2.75;;;;;;;28.81;45.16;100757.25;5112897;27;20036;-67
2021/08/11 01:04:18;;;;;;;5.97;3.03;;;;;;;28.77;45.27;100755.66;5113347;27;20040;-67
2021/08/11 01:06:47;;;;;;;4.78;2.78;;;;;;;28.75;45.16;100752.19;5113169;28;20070;-68
2021/08/11 01:09:16;;;;;;;5.57;2.92;;;;;;;28.73;45.14;100752.22;5112669;27;20044;-68
2021/08/11 01:11:45;;;;;;;5.47;2.45;;;;;;;28.70;45.25;100748.78;5113210;28;20382;-67
2021/08/11 01:14:14;;;;;;;9.80;3.47;;;;;;;28.68;45.51;100753.47;5113165;28;20591;-67
2021/08/11 01:16:42;;;;;;;6.35;3.00;;;;;;;28.65;45.66;100740.06;5113027;28;20046;-68
2021/08/11 01:19:10;;;;;;;7.43;3.03;;;;;;;28.64;45.77;100746.44;5112650;28;20044;-68
2021/08/11 01:21:50;;;;;;;5.38;2.72;;;;;;;28.63;45.97;100756.44;5112487;28;20035;-68
2021/08/11 01:24:25;;;;;;;9.52;2.72;;;;;;;28.59;46.06;100749.44;5112932;27;20050;-68
2021/08/11 01:27:12;;;;;;;5.45;2.58;;;;;;;28.59;46.17;100738.59;5112090;28;20499;-68
2021/08/11 01:29:54;;;;;;;9.13;3.22;;;;;;;28.61;46.23;100743.94;5112492;28;20050;-67
2021/08/11 01:32:31;;;;;;;8.90;3.00;;;;;;;28.58;46.20;100731.41;5112418;28;20391;-67
2021/08/11 01:35:02;;;;;;;7.32;2.70;;;;;;;28.54;46.25;100736.16;5112561;28;20401;-68
2021/08/11 01:37:32;;;;;;;5.22;2.70;;;;;;;28.53;46.33;100739.81;5112262;28;20043;-67
2021/08/11 01:40:02;;;;;;;7.95;3.03;;;;;;;28.52;46.29;100732.63;5111958;28;20058;-68
2021/08/11 01:42:36;;;;;;;7.03;3.15;;;;;;;28.48;46.56;100733.78;5112331;28;20152;-67
2021/08/11 01:45:11;;;;;;;6.88;2.88;;;;;;;28.44;46.86;100737.63;5111608;28;20118;-68
2021/08/11 01:47:43;;;;;;;4.90;2.65;;;;;;;28.44;46.82;100737.63;5111931;28;20031;-68
2021/08/11 01:50:16;;;;;;;8.27;3.17;;;;;;;28.43;47.01;100732.28;5111928;28;20048;-68
2021/08/11 01:52:45;;;;;;;5.28;3.08;;;;;;;28.43;47.03;100738.59;5112430;27;20079;-68
2021/08/11 01:55:14;;;;;;;6.65;3.00;;;;;;;28.45;47.13;100742.13;5111967;27;20047;-68
2021/08/11 01:57:47;;;;;;;7.20;3.42;;;;;;;28.44;47.01;100734.03;5109830;28;20047;-68
2021/08/11 02:00:15;;;;;;;5.38;2.83;;;;;;;28.41;47.18;100734.25;5112147;28;20101;-68
2021/08/11 02:02:43;;;;;;;4.80;2.80;;;;;;;28.40;47.23;100729.78;5111433;28;20047;-68
2021/08/11 02:05:14;;;;;;;7.28;2.80;;;;;;;28.38;47.29;100735.28;5111588;28;20120;-68
2021/08/11 02:07:43;;;;;;;8.88;3.33;;;;;;;28.38;47.44;100732.56;5111880;28;20048;-68
2021/08/11 02:10:13;;;;;;;7.18;3.00;;;;;;;28.37;47.61;100736.25;5112164;28;20049;-67
2021/08/11 02:13:00;;;;;;;6.63;2.70;;;;;;;28.37;47.59;100738.09;5112097;28;20510;-67
2021/08/11 02:15:28;;;;;;;9.23;3.22;;;;;;;28.36;47.69;100739.03;5111898;27;20043;-68
2021/08/11 02:17:58;;;;;;;6.75;3.03;;;;;;;28.36;47.62;100733.59;5105563;28;20039;-67
2021/08/11 02:20:27;;;;;;;9.68;2.72;;;;;;;28.31;47.72;100739.31;5111467;28;20035;-69
2021/08/11 02:22:54;;;;;;;5.82;2.70;;;;;;;28.33;47.69;100736.53;5111771;28;20044;-67
2021/08/11 02:25:22;;;;;;;7.18;3.42;;;;;;;28.32;47.77;100735.66;5112193;28;20106;-67
2021/08/11 02:27:55;;;;;;;5.15;3.08;;;;;;;28.37;47.69;100749.81;5109937;28;20054;-67
2021/08/11 02:30:26;;;;;;;8.68;2.97;;;;;;;28.37;47.71;100748.94;5111622;28;20039;-67
2021/08/11 02:32:59;;;;;;;7.78;3.13;;;;;;;28.36;47.57;100747.19;5111636;28;20047;-67
2021/08/11 02:35:32;;;;;;;5.95;2.70;;;;;;;28.34;47.72;100754.56;5112233;28;20032;-68
2021/08/11 02:38:04;;;;;;;5.97;2.67;;;;;;;28.31;47.81;100738.44;5111791;28;20093;-67
2021/08/11 02:40:36;;;;;;;5.32;2.67;;;;;;;28.37;48.03;100749.81;5111744;28;20042;-68
2021/08/11 02:43:11;;;;;;;8.40;3.38;;;;;;;28.37;47.90;100755.25;5111609;28;20048;-67
2021/08/11 02:45:41;;;;;;;5.70;2.75;;;;;;;28.34;48.10;100752.75;5111794;28;20039;-68
2021/08/11 02:48:12;;;;;;;7.15;3.15;;;;;;;28.32;48.36;100757.38;5111740;28;20036;-68
2021/08/11 02:50:43;;;;;;;9.35;3.35;;;;;;;28.34;48.11;100750.03;5111984;28;20036;-68
2021/08/11 02:53:14;;;;;;;7.28;3.13;;;;;;;28.36;48.55;100758.94;5111520;28;20048;-68
2021/08/11 02:55:42;;;;;;;6.38;2.88;;;;;;;28.34;48.63;100760.88;5111411;28;20044;-68
2021/08/11 02:58:11;;;;;;;6.20;3.13;;;;;;;28.33;48.74;100760.97;5115494;27;20036;-68
2021/08/11 03:00:39;;;;;;;8.07;3.30;;;;;;;28.30;49.04;100764.72;5115818;27;20384;-67
2021/08/11 03:03:09;;;;;;;6.07;3.50;;;;;;;28.29;49.27;100765.69;5113666;27;20383;-68
2021/08/11 03:05:41;;;;;;;8.68;3.08;;;;;;;28.27;49.20;100756.78;5115143;28;20040;-68
2021/08/11 03:08:10;;;;;;;5.57;3.13;;;;;;;28.25;49.56;100763.25;5115375;27;20054;-67
2021/08/11 03:10:39;;;;;;;6.00;2.85;;;;;;;28.25;50.00;100768.69;5115006;27;20036;-67
2021/08/11 03:13:08;;;;;;;7.32;3.33;;;;;;;28.24;49.79;100770.50;5115290;27;20040;-67
2021/08/11 03:15:38;;;;;;;5.07;2.88;;;;;;;28.24;50.17;100770.50;5114938;28;20051;-67
2021/08/11 03:18:05;;;;;;;6.13;3.03;;;;;;;28.20;50.07;100774.38;5115243;27;20035;-68
2021/08/11 03:20:33;;;;;;;8.07;3.35;;;;;;;28.20;50.32;100765.34;5114850;28;20085;-67
2021/08/11 03:23:02;;;;;;;7.55;3.05;;;;;;;28.17;50.48;100763.69;5114662;27;20491;-67
2021/08/11 03:25:29;;;;;;;5.55;3.05;;;;;;;28.19;50.57;100763.59;5114842;28;20044;-68
2021/08/11 03:27:57;;;;;;;5.75;2.83;;;;;;;28.20;50.46;100766.25;5114473;27;20052;-67
2021/08/11 03:30:24;;;;;;;8.85;3.22;;;;;;;28.19;50.32;100764.47;5115224;27;20048;-67
2021/08/11 03:32:52;;;;;;;8.27;3.30;;;;;;;28.18;50.38;100765.44;5115201;28;20059;-68
2021/08/11 03:35:38;;;;;;;8.73;2.90;;;;;;;28.18;50.23;100768.16;5113636;27;20482;-67
2021/08/11 03:38:08;;;;;;;6.95;3.45;;;;;;;28.20;50.48;100768.06;5114784;28;20039;-68
2021/08/11 03:40:35;;;;;;;7.03;3.17;;;;;;;28.21;50.56;100769.81;5115110;27;20039;-67
2021/08/11 03:43:02;;;;;;;4.32;3.00;;;;;;;28.22;50.36;100774.31;5114519;27;20055;-68
2021/08/11 03:45:30;;;;;;;5.65;3.05;;;;;;;28.22;50.28;100782.44;5114633;27;20038;-68
2021/08/11 03:47:57;;;;;;;5.80;3.00;;;;;;;28.26;50.19;100779.47;5114946;27;20043;-67
2021/08/11 03:50:25;;;;;;;7.10;3.47;;;;;;;28.30;50.04;100775.59;5114380;28;20031;-67
2021/08/11 03:52:53;;;;;;;7.97;3.28;;;;;;;28.37;50.22;100782.41;5114377;27;20052;-66
2021/08/11 03:55:22;;;;;;;6.68;3.20;;;;;;;28.46;50.35;100781.91;5114993;27;20039;-69
2021/08/11 03:57:49;;;;;;;8.25;3.60;;;;;;;28.51;50.54;100785.22;5112010;28;20040;-67
2021/08/11 04:00:17;;;;;;;12.25;3.40;;;;;;;28.58;50.30;100780.28;5114140;27;20410;-67
2021/08/11 04:02:44;;;;;;;6.13;3.35;;;;;;;28.66;50.36;100793.44;5114304;27;20044;-68
2021/08/11 04:05:12;;;;;;;7.40;2.97;;;;;;;28.78;50.31;100790.03;5114542;28;20055;-68
2021/08/11 04:07:39;;;;;;;7.88;3.30;;;;;;;28.85;49.96;100781.41;5113657;28;20044;-67
2021/08/11 04:10:09;;;;;;;4.97;2.83;;;;;;;28.97;49.91;100792.50;5114024;27;20088;-68
2021/08/11 04:12:38;;;;;;;7.65;3.00;;;;;;;29.07;49.83;100800.03;5114417;27;20048;-67
2021/08/11 04:15:07;;;;;;;6.88;3.05;;;;;;;29.18;49.64;100794.81;5112670;28;20050;-68
2021/08/11 04:17:35;;;;;;;6.70;3.20;;;;;;;29.29;49.41;100795.03;5113779;28;20043;-67
2021/08/11 04:20:02;;;;;;;6.05;2.70;;;;;;;29.41;49.28;100793.41;5113476;27;20051;-68
2021/08/11 04:22:29;;;;;;;7.03;3.20;;;;;;;29.53;48.99;100789.06;5113595;28;20036;-68
2021/08/11 04:24:57;;;;;;;6.00;2.67;;;;;;;29.66;48.74;100796.38;5113575;27;20047;-67
2021/08/11 04:27:40;;;;;;;7.22;2.90;;;;;;;29.78;48.57;100794.72;5113885;27;20032;-67
2021/08/11 04:30:09;;;;;;;5.53;2.75;;;;;;;29.90;48.55;100793.94;5114110;28;20042;-68
2021/08/11 04:32:37;;;;;;;5.00;2.80;;;;;;;30.05;48.20;100805.72;5114103;28;20055;-67
2021/08/11 04:35:07;;;;;;;6.03;3.03;;;;;;;30.20;48.07;100803.81;5113788;27;20044;-68
2021/08/11 04:37:35;;;;;;;10.32;3.10;;;;;;;30.34;47.85;100803.81;5113666;28;20517;-68
2021/08/11 04:40:04;;;;;;;7.80;2.70;;;;;;;30.48;47.41;100803.78;5113754;28;20055;-67
2021/08/11 04:42:31;;;;;;;9.85;3.05;;;;;;;30.60;47.10;100802.97;5113572;28;20065;-68
2021/08/11 04:45:00;;;;;;;6.28;3.00;;;;;;;30.77;46.60;100804.59;5113303;27;20043;-68
2021/08/11 04:47:28;;;;;;;6.07;3.08;;;;;;;30.88;46.35;100811.06;5113632;28;20043;-68
2021/08/11 04:49:55;;;;;;;8.63;3.03;;;;;;;31.06;45.98;100799.88;5113742;28;20031;-67
2021/08/11 04:52:30;;;;;;;7.35;3.42;;;;;;;31.22;45.83;100808.75;5113275;27;20063;-67
2021/08/11 04:54:58;;;;;;;4.60;2.83;;;;;;;31.38;45.15;100803.09;5113146;28;20044;-67
2021/08/11 04:57:26;;;;;;;9.93;3.35;;;;;;;31.50;44.90;100803.13;5109081;27;20483;-67
2021/08/11 04:59:53;;;;;;;5.65;3.05;;;;;;;31.65;44.28;100801.16;5113605;28;20040;-67
2021/08/11 05:02:22;;;;;;;8.40;3.10;;;;;;;31.82;43.62;100805.44;5110691;28;20592;-69
2021/08/11 05:04:49;;;;;;;9.27;3.17;;;;;;;31.96;43.45;100814.38;5112786;28;20051;-69
2021/08/11 05:07:16;;;;;;;7.40;2.97;;;;;;;32.09;43.07;100808.03;5112914;28;20066;-68
2021/08/11 05:09:44;;;;;;;6.03;2.97;;;;;;;32.25;42.80;100805.91;5113134;27;20047;-67
2021/08/11 05:12:11;;;;;;;8.02;3.15;;;;;;;32.46;42.16;100807.06;5110458;28;20494;-68
2021/08/11 05:14:39;;;;;;;7.57;3.22;;;;;;;32.59;41.47;100807.88;5113021;28;20038;-68
2021/08/11 05:17:06;;;;;;;7.50;3.08;;;;;;;32.73;41.07;100815.97;5112536;28;20044;-67
2021/08/11 05:19:36;;;;;;;5.85;3.13;;;;;;;32.96;40.80;100816.03;5111479;27;20047;-67
2021/08/11 05:22:04;;;;;;;6.57;3.08;;;;;;;33.11;40.15;100818.47;5112869;28;20050;-68
2021/08/11 05:24:31;;;;;;;3.75;3.03;;;;;;;33.30;39.89;100819.81;5112468;28;20483;-68
2021/08/11 05:26:59;;;;;;;7.40;3.20;;;;;;;33.51;40.14;100826.34;5112148;28;20440;-68
2021/08/11 05:29:27;;;;;;;5.45;3.17;;;;;;;33.77;39.60;100830.63;5112655;28;20491;-68
2021/08/11 05:31:55;;;;;;;5.30;3.20;;;;;;;33.94;39.13;100824.66;5112146;28;20483;-67
2021/08/11 05:34:22;;;;;;;5.45;3.10;;;;;;;34.14;38.67;100830.38;5112660;27;20031;-68
2021/08/11 05:36:51;;;;;;;11.95;3.50;;;;;;;34.35;37.91;100831.41;5112740;27;20058;-68
2021/08/11 05:39:18;;;;;;;7.63;3.47;;;;;;;34.54;37.28;100836.22;5111858;27;20046;-68
2021/08/11 05:41:46;;;;;;;5.53;3.25;;;;;;;34.71;36.94;100839.34;5112051;28;20044;-68
2021/08/11 05:44:13;;;;;;;4.93;2.72;;;;;;;34.96;36.40;100835.38;5112272;28;20035;-68
2021/08/11 05:46:40;;;;;;;10.60;3.28;;;;;;;35.16;35.89;100842.78;5112456;28;20050;-68
2021/08/11 05:49:08;;;;;;;5.88;3.30;;;;;;;35.40;35.30;100837.06;5111918;28;20047;-68
2021/08/11 05:51:36;;;;;;;7.88;3.92;;;;;;;35.63;35.15;100843.31;5112339;28;20046;-69
2021/08/11 05:54:06;;;;;;;9.60;3.33;;;;;;;35.73;34.63;100849.75;5111591;28;20063;-68
2021/08/11 05:56:34;;;;;;;4.25;2.90;;;;;;;35.74;34.30;100851.50;5111651;28;20039;-68
2021/08/11 05:59:01;;;;;;;6.70;2.83;;;;;;;35.82;34.14;100848.06;5112104;28;20383;-68
2021/08/11 06:01:29;;;;;;;5.75;3.00;;;;;;;36.06;33.93;100847.75;5111850;27;20036;-67
2021/08/11 06:04:09;;;;;;;7.25;3.55;;;;;;;36.22;33.75;100851.78;5111276;28;20067;-67
2021/08/11 06:06:37;;;;;;;4.82;2.97;;;;;;;36.36;33.71;100852.41;5112192;28;20036;-67
2021/08/11 06:09:06;;;;;;;12.65;3.35;;;;;;;36.53;33.29;100841.59;5111253;28;20479;-67
2021/08/11 06:11:33;;;;;;;6.53;3.40;;;;;;;36.49;33.15;100853.03;5111805;28;20044;-67
2021/08/11 06:14:01;;;;;;;7.88;3.28;;;;;;;36.57;33.11;100848.53;5111895;28;20048;-67
2021/08/11 06:16:28;;;;;;;5.88;3.33;;;;;;;36.57;32.57;100855.91;5111432;27;20042;-68
2021/08/11 06:18:57;;;;;;;8.85;3.70;;;;;;;36.71;32.28;100858.31;5111576;28;20039;-67
2021/08/11 06:21:25;;;;;;;6.15;3.25;;;;;;;36.80;32.07;100856.59;5111205;28;20043;-67
2021/08/11 06:23:52;;;;;;;8.20;3.80;;;;;;;36.82;32.23;100854.56;5111010;28;20031;-68
2021/08/11 06:26:22;;;;;;;6.80;3.22;;;;;;;36.78;32.41;100855.84;5111909;28;20058;-68
2021/08/11 06:28:50;;;;;;;7.25;3.45;;;;;;;36.95;32.61;100863.44;5108885;28;20050;-69
2021/08/11 06:31:20;;;;;;;8.85;3.90;;;;;;;37.15;31.98;100867.09;5113004;28;20036;-69
2021/08/11 06:33:47;;;;;;;9.25;4.20;;;;;;;37.28;31.81;100873.19;5114912;28;20031;-69
2021/08/11 06:36:15;;;;;;;8.90;3.35;;;;;;;37.24;31.87;100869.84;5116086;27;20048;-70
2021/08/11 06:38:43;;;;;;;11.20;3.70;;;;;;;37.37;32.05;100878.69;5116001;27;20383;-69
2021/08/11 06:41:15;;;;;;;8.93;3.53;;;;;;;37.41;31.38;100876.50;5115755;28;20035;-69
2021/08/11 06:43:45;;;;;;;8.77;3.83;;;;;;;37.43;30.90;100880.84;5115965;27;20031;-69
2021/08/11 06:46:12;;;;;;;11.23;3.80;;;;;;;37.56;30.93;100879.66;5115497;28;20279;-69
2021/08/11 06:48:40;;;;;;;5.32;3.33;;;;;;;37.72;30.53;100872.59;5115856;28;20040;-69
2021/08/11 06:51:08;;;;;;;7.35;3.63;;;;;;;37.84;30.58;100879.66;5115854;27;20043;-69
2021/08/11 06:53:36;;;;;;;6.07;3.65;;;;;;;37.89;30.21;100884.72;5114376;28;20113;-70
2021/08/11 06:56:03;;;;;;;6.15;3.17;;;;;;;37.89;30.36;100884.72;5115497;28;20044;-70
2021/08/11 06:58:30;;;;;;;6.70;3.65;;;;;;;37.90;30.08;100878.19;5115145;28;20129;-69
2021/08/11 07:00:59;;;;;;;5.20;3.55;;;;;;;37.79;30.02;100876.47;5112874;27;20039;-69
2021/08/11 07:03:27;;;;;;;5.82;3.38;;;;;;;37.80;30.29;100874.59;5115592;27;20479;-69
2021/08/11 07:05:54;;;;;;;4.82;3.60;;;;;;;37.84;30.38;100885.16;5115412;27;20100;-70
2021/08/11 07:08:22;;;;;;;9.38;3.55;;;;;;;37.98;30.13;100880.19;5114176;28;20046;-70
2021/08/11 07:10:51;;;;;;;6.70;3.40;;;;;;;38.15;30.08;100876.69;5115333;28;20164;-70
2021/08/11 07:13:18;;;;;;;5.65;3.00;;;;;;;38.31;29.40;100885.19;5115140;27;20089;-70
2021/08/11 07:15:46;;;;;;;10.88;3.92;;;;;;;38.45;29.21;100881.94;5115392;27;20387;-69
2021/08/11 07:18:18;;;;;;;10.05;3.67;;;;;;;38.51;29.42;100883.25;5114838;27;20422;-69
2021/08/11 07:20:46;;;;;;;8.15;3.95;;;;;;;38.29;29.64;100878.94;5114297;28;20040;-69
2021/08/11 07:23:13;;;;;;;6.53;3.90;;;;;;;38.10;29.39;100884.53;5114677;27;20055;-69
2021/08/11 07:25:41;;;;;;;6.82;3.65;;;;;;;38.19;29.34;100873.47;5115297;28;20043;-68
2021/08/11 07:28:10;;;;;;;6.13;3.75;;;;;;;38.13;29.31;100865.81;5115263;27;20057;-69
2021/08/11 07:30:58;;;;;;;5.78;3.30;;;;;;;38.05;29.98;100871.22;5109432;27;20387;-69
2021/08/11 07:33:27;;;;;;;5.97;3.65;;;;;;;38.15;29.21;100860.13;5115129;27;20039;-69
2021/08/11 07:35:54;;;;;;;10.52;3.65;;;;;;;38.16;29.05;100868.25;5114466;28;20047;-68
2021/08/11 07:38:22;;;;;;;5.95;3.55;;;;;;;37.84;29.01;100870.50;5114872;27;20057;-69
2021/08/11 07:40:50;;;;;;;9.18;3.42;;;;;;;37.55;29.48;100867.78;5114634;28;20395;-69
2021/08/11 07:43:17;;;;;;;5.90;3.50;;;;;;;37.77;29.54;100863.84;5113447;28;20040;-70
2021/08/11 07:45:45;;;;;;;7.50;3.33;;;;;;;38.15;29.20;100873.91;5112626;27;20055;-70
2021/08/11 07:48:12;;;;;;;7.15;3.22;;;;;;;38.51;28.72;100874.97;5113928;27;20039;-70
2021/08/11 07:50:41;;;;;;;7.57;3.53;;;;;;;38.57;28.73;100866.06;5113892;27;20047;-69
2021/08/11 07:53:09;;;;;;;5.55;3.13;;;;;;;38.08;29.21;100876.41;5114529;27;20044;-70
2021/08/11 07:55:36;;;;;;;6.22;3.22;;;;;;;37.86;29.42;100862.97;5111965;27;20047;-70
2021/08/11 07:58:04;;;;;;;5.38;3.40;;;;;;;37.61;29.30;100874.63;5113597;28;20036;-70
2021/08/11 08:00:32;;;;;;;6.68;3.30;;;;;;;38.05;29.24;100864.81;5114594;27;20051;-71
2021/08/11 08:02:59;;;;;;;8.48;3.50;;;;;;;38.41;29.19;100871.31;5114226;27;20048;-68
2021/08/11 08:05:29;;;;;;;6.18;3.60;;;;;;;38.54;29.01;100864.47;5114121;27;20032;-68
2021/08/11 08:08:00;;;;;;;6.82;3.45;;;;;;;38.88;29.04;100866.56;5114365;27;20437;-68
2021/08/11 08:10:28;;;;;;;9.68;3.60;;;;;;;38.91;28.51;100866.28;5114195;27;20398;-67
2021/08/11 08:12:55;;;;;;;4.32;2.80;;;;;;;38.95;27.95;100862.19;5114063;28;20071;-68
2021/08/11 08:15:23;;;;;;;6.93;3.42;;;;;;;38.89;27.98;100871.94;5114143;28;20525;-67
2021/08/11 08:17:50;;;;;;;9.98;4.20;;;;;;;39.00;27.92;100870.88;5113874;28;20522;-67
2021/08/11 08:20:20;;;;;;;4.65;2.67;;;;;;;39.20;27.72;100875.22;5113577;27;20042;-67
2021/08/11 08:22:48;;;;;;;6.90;2.88;;;;;;;39.16;27.97;100873.81;5113438;28;20047;-67
2021/08/11 08:25:20;;;;;;;7.35;3.55;;;;;;;38.68;28.21;100861.19;5113914;28;20054;-68
2021/08/11 08:27:49;;;;;;;10.30;3.97;;;;;;;38.72;28.14;100859.00;5113531;27;20388;-68
2021/08/11 08:30:16;;;;;;;7.28;2.92;;;;;;;39.08;27.53;100864.56;5113843;28;20036;-68
2021/08/11 08:32:44;;;;;;;5.10;2.78;;;;;;;39.30;27.11;100853.03;5113776;27;20036;-69
2021/08/11 08:35:12;;;;;;;5.80;3.13;;;;;;;39.18;27.56;100854.31;5113059;28;20035;-68
2021/08/11 08:37:40;;;;;;;7.10;2.95;;;;;;;39.17;27.19;100864.50;5112895;27;20039;-70
2021/08/11 08:40:10;;;;;;;7.22;3.42;;;;;;;39.21;27.40;100853.97;5112843;28;20051;-70
2021/08/11 08:42:40;;;;;;;8.32;3.20;;;;;;;39.53;26.93;100850.66;5103711;27;20050;-70
2021/08/11 08:45:09;;;;;;;7.15;3.30;;;;;;;39.31;27.08;100855.66;5125525;27;20043;-69
2021/08/11 08:47:37;;;;;;;6.30;3.38;;;;;;;38.74;27.43;100856.06;5112156;27;20044;-71
2021/08/11 08:50:08;;;;;;;6.80;3.28;;;;;;;38.72;27.34;100849.84;5112759;28;20044;-70
2021/08/11 08:52:37;;;;;;;8.23;3.33;;;;;;;38.93;27.00;100848.53;5110657;27;20039;-70
2021/08/11 08:55:06;;;;;;;8.98;3.30;;;;;;;38.96;27.37;100848.22;5112917;27;20448;-69
2021/08/11 08:57:35;;;;;;;7.70;3.20;;;;;;;39.34;27.10;100844.25;5112839;28;20050;-69
2021/08/11 09:00:05;;;;;;;5.30;3.20;;;;;;;39.44;26.54;100844.22;5112584;27;20483;-69
2021/08/11 09:02:33;;;;;;;7.63;3.15;;;;;;;39.42;26.78;100849.91;5112560;27;20040;-68
2021/08/11 09:05:00;;;;;;;8.25;3.63;;;;;;;39.45;26.77;100844.03;5112318;27;20512;-68
2021/08/11 09:07:27;;;;;;;8.63;3.20;;;;;;;39.52;26.29;100840.66;5112754;28;20040;-70
2021/08/11 09:09:55;;;;;;;6.72;3.20;;;;;;;39.78;26.25;100845.13;5113113;27;20109;-71
2021/08/11 09:12:23;;;;;;;7.40;3.13;;;;;;;39.94;26.07;100838.88;5111945;28;20051;-71
2021/08/11 09:14:52;;;;;;;6.30;3.00;;;;;;;39.93;25.71;100844.56;5112776;27;20036;-70
2021/08/11 09:17:37;;;;;;;7.57;3.30;;;;;;;39.48;26.11;100839.22;5110584;28;20048;-70
2021/08/11 09:20:05;;;;;;;8.98;2.97;;;;;;;39.38;26.48;100839.34;5109809;27;20054;-69
2021/08/11 09:22:46;;;;;;;5.78;3.08;;;;;;;39.56;26.09;100836.53;5112285;28;20050;-72
2021/08/11 09:25:13;;;;;;;4.28;3.03;;;;;;;39.36;26.22;100827.56;5112452;28;20043;-70
2021/08/11 09:27:42;;;;;;;7.38;3.40;;;;;;;39.43;26.92;100821.22;5112584;28;20498;-70
2021/08/11 09:30:14;;;;;;;4.25;3.30;;;;;;;39.63;26.25;100826.56;5112898;28;20043;-70
2021/08/11 09:32:55;;;;;;;5.57;3.05;;;;;;;39.62;26.32;100822.91;5112146;28;20042;-73
2021/08/11 09:35:24;;;;;;;6.00;3.20;;;;;;;39.65;26.39;100821.75;5112733;28;20032;-70
2021/08/11 09:37:52;;;;;;;5.28;2.97;;;;;;;39.70;26.36;100814.69;5112735;28;20119;-69
2021/08/11 09:40:21;;;;;;;7.40;3.00;;;;;;;39.86;26.12;100824.13;5112237;28;20036;-69
2021/08/11 09:42:53;;;;;;;9.80;3.28;;;;;;;39.53;26.34;100814.72;5110206;28;20046;-68
2021/08/11 09:45:20;;;;;;;4.10;3.20;;;;;;;39.34;26.34;100813.00;5112706;27;20036;-69
2021/08/11 09:48:02;;;;;;;5.82;2.70;;;;;;;39.27;26.12;100809.13;5112193;27;20046;-69
2021/08/11 09:50:38;;;;;;;5.13;2.90;;;;;;;39.36;26.08;100820.13;5111946;28;20036;-71
2021/08/11 09:53:06;;;;;;;5.53;3.42;;;;;;;39.54;25.96;100802.63;5112520;27;20052;-70
2021/08/11 09:56:02;;;;;;;6.90;2.90;;;;;;;39.51;25.75;100811.25;5112083;28;20098;-70
2021/08/11 09:58:30;;;;;;;4.70;3.28;;;;;;;39.23;26.00;100805.84;5111533;28;20043;-71
2021/08/11 10:00:58;;;;;;;4.25;2.80;;;;;;;39.10;26.41;100798.97;5111820;28;20040;-69
2021/08/11 10:03:27;;;;;;;7.90;3.40;;;;;;;39.32;25.58;100798.47;5112558;28;20044;-71
2021/08/11 10:05:56;;;;;;;8.48;3.42;;;;;;;39.50;25.61;100812.28;5111739;28;20418;-70
2021/08/11 10:08:35;;;;;;;8.10;3.30;;;;;;;39.63;25.56;100807.19;5112124;28;20046;-71
2021/08/11 10:11:03;;;;;;;6.07;3.20;;;;;;;39.50;25.23;100804.00;5111202;28;20055;-70
2021/08/11 10:13:34;;;;;;;5.57;3.00;;;;;;;39.18;25.18;100812.88;5111828;28;20044;-70
2021/08/11 10:16:03;;;;;;;5.32;2.90;;;;;;;39.09;25.57;100809.16;5111918;28;20070;-68
2021/08/11 10:18:39;;;;;;;6.78;3.17;;;;;;;39.23;25.47;100805.84;5111002;28;20035;-68
2021/08/11 10:21:08;;;;;;;6.63;3.15;;;;;;;39.39;24.99;100805.97;5111524;28;20040;-71
2021/08/11 10:23:36;;;;;;;6.93;2.80;;;;;;;39.31;25.08;100797.63;5110942;28;20039;-71
2021/08/11 10:26:04;;;;;;;7.88;2.83;;;;;;;39.23;24.64;100783.72;5111714;28;20044;-72
2021/08/11 10:28:32;;;;;;;5.72;3.15;;;;;;;39.25;24.39;100789.97;5111739;28;20081;-72
2021/08/11 10:31:00;;;;;;;6.22;2.90;;;;;;;39.35;24.50;100792.63;5111120;28;20503;-71
2021/08/11 10:33:28;;;;;;;6.90;3.10;;;;;;;39.38;24.23;100787.69;5111807;28;20044;-71
2021/08/11 10:36:00;;;;;;;4.40;2.60;;;;;;;39.26;24.30;100783.38;5111626;28;20042;-69
2021/08/11 10:38:28;;;;;;;5.00;2.88;;;;;;;39.27;24.72;100785.13;5109232;28;20078;-70
2021/08/11 10:40:55;;;;;;;12.38;3.30;;;;;;;39.20;25.05;100777.63;5111348;28;20497;-71
2021/08/11 10:43:23;;;;;;;5.32;3.00;;;;;;;39.22;24.61;100787.50;5111081;28;20054;-69
2021/08/11 10:46:10;;;;;;;5.45;3.22;;;;;;;39.16;24.93;100776.22;5111639;28;20048;-72
2021/08/11 10:48:38;;;;;;;8.30;2.88;;;;;;;38.95;25.09;100773.81;5111326;28;20038;-72
2021/08/11 10:51:07;;;;;;;8.15;3.30;;;;;;;39.11;25.20;100775.84;5111012;28;20040;-73
2021/08/11 10:53:35;;;;;;;5.32;2.70;;;;;;;39.02;24.82;100763.84;5111190;28;20450;-74
2021/08/11 10:56:02;;;;;;;4.95;2.97;;;;;;;39.04;24.99;100775.63;5111472;28;20048;-73
2021/08/11 10:58:39;;;;;;;5.38;3.28;;;;;;;39.20;25.10;100770.22;5111164;28;20426;-72
2021/08/11 11:01:33;;;;;;;6.72;3.00;;;;;;;39.14;24.76;100773.63;5110737;28;20046;-71
2021/08/11 11:04:00;;;;;;;;;;;;;;;38.97;24.45;100760.72;5111530;28;20044;-73
2021/08/11 11:07:13;;;;;;;4.63;3.00;;;;;;;39.07;23.79;100755.94;5113421;28;19989;-74
2021/08/11 11:09:42;;;;;;;7.13;3.17;;;;;;;39.23;23.50;100769.03;5110470;28;20036;-71
2021/08/11 11:12:39;;;;;;;6.00;3.17;;;;;;;39.28;23.30;100755.59;5111410;28;20039;-70
2021/08/11 11:15:07;;;;;;;4.13;2.90;;;;;;;39.32;23.47;100759.78;5110360;28;20050;-72
2021/08/11 11:18:12;;;;;;;4.65;3.00;;;;;;;39.38;22.49;100765.56;5112749;28;20042;-72
2021/08/11 11:20:39;;;;;;;5.72;2.83;;;;;;;39.29;22.94;100751.81;5115052;27;20119;-72
2021/08/11 11:23:08;;;;;;;4.70;3.00;;;;;;;39.44;22.86;100761.28;5115104;28;20043;-71
2021/08/11 11:25:59;;;;;;;5.43;3.05;;;;;;;39.55;23.00;100760.13;5114898;27;20117;-71
2021/08/11 11:29:06;;;;;;;5.97;3.10;;;;;;;39.63;22.98;100762.97;5114797;27;20036;-69
2021/08/11 11:31:55;;;;;;;6.68;3.70;;;;;;;39.74;23.04;100770.97;5096110;28;20431;-73
2021/08/11 11:34:28;;;;;;;11.27;3.35;;;;;;;39.93;23.02;100769.88;5114836;27;20495;-72
2021/08/11 11:37:21;;;;;;;5.30;3.03;;;;;;;39.79;23.23;100766.69;5115139;27;20040;-72
2021/08/11 11:40:16;;;;;;;5.43;3.43;;;;;;;40.00;23.28;100765.41;5110970;28;20397;-71